Time;durP1;ratioP1;P1;durP2;ratioP2;P2;SDS_P1;SDS_P2;PMS_P1;PMS_P2;Temp;Humidity;BMP_temperature;BMP_pressure;BME280_temperature;BME280_humidity;BME280_pressure;Samples;Min_cycle;Max_cycle;Signal;HPM_P1;HPM_P2
2022/03/24 00:00:36;;;;;;;0.00;0.00;;;;;;;12.65;51.67;102340.44;7346828;19;20021;-62
2022/03/24 00:03:01;;;;;;;0.00;0.00;;;;;;;12.70;51.60;102351.78;7351716;19;20872;-62
2022/03/24 00:05:27;;;;;;;0.00;0.00;;;;;;;12.71;51.66;102362.25;7346656;19;20022;-63
2022/03/24 00:07:52;;;;;;;0.00;0.00;;;;;;;12.71;51.81;102364.00;7348173;19;20033;-62
2022/03/24 00:10:18;;;;;;;0.00;0.00;;;;;;;12.67;51.39;102363.16;7327668;19;20011;-63
2022/03/24 00:12:43;;;;;;;0.00;0.00;;;;;;;12.68;51.81;102367.50;7349788;19;20015;-62
2022/03/24 00:15:09;;;;;;;0.00;0.00;;;;;;;12.68;51.73;102364.91;7350532;19;20642;-63
2022/03/24 00:17:34;;;;;;;0.00;0.00;;;;;;;12.68;51.74;102370.13;7350700;19;20013;-61
2022/03/24 00:20:00;;;;;;;0.00;0.00;;;;;;;12.68;51.43;102367.50;7345578;19;20018;-62
2022/03/24 00:22:26;;;;;;;0.00;0.00;;;;;;;12.68;52.65;102370.13;7332686;19;20074;-63
2022/03/24 00:24:55;;;;;;;0.00;0.00;;;;;;;12.70;52.26;102370.13;7348756;19;20055;-63
2022/03/24 00:27:21;;;;;;;0.00;0.00;;;;;;;12.70;52.23;102362.25;7345055;19;20514;-63
2022/03/24 00:29:46;;;;;;;0.00;0.00;;;;;;;12.64;52.34;102352.69;7339583;19;20085;-61
2022/03/24 00:32:12;;;;;;;0.00;0.00;;;;;;;12.74;52.47;102369.22;7345389;19;20771;-62
2022/03/24 00:34:38;;;;;;;0.00;0.00;;;;;;;12.75;52.31;102365.72;7341247;19;20040;-62
2022/03/24 00:37:04;;;;;;;0.00;0.00;;;;;;;12.67;52.04;102350.06;7351255;19;20019;-62
2022/03/24 00:39:34;;;;;;;0.00;0.00;;;;;;;12.79;52.43;102371.84;7345848;19;19999;-62
2022/03/24 00:42:11;;;;;;;0.00;0.00;;;;;;;12.82;52.16;102367.41;7364215;19;20043;-63
2022/03/24 00:44:42;;;;;;;0.00;0.00;;;;;;;12.82;51.59;102366.56;7348792;19;20010;-62
2022/03/24 00:47:09;;;;;;;0.00;0.00;;;;;;;12.82;52.38;102363.94;7354616;19;20010;-62
2022/03/24 00:49:34;;;;;;;0.00;0.00;;;;;;;12.84;52.30;102360.44;7336305;19;20023;-62
2022/03/24 00:51:59;;;;;;;0.00;0.00;;;;;;;12.86;52.30;102368.28;7335702;19;20093;-62
2022/03/24 00:54:26;;;;;;;0.03;0.03;;;;;;;12.83;52.08;102353.47;7349202;19;20006;-62
2022/03/24 00:56:51;;;;;;;0.08;0.08;;;;;;;12.88;51.96;102361.31;7331859;19;20036;-62
2022/03/24 00:59:17;;;;;;;0.00;0.00;;;;;;;12.92;52.41;102368.25;7357558;19;20018;-61
2022/03/24 01:01:42;;;;;;;0.00;0.00;;;;;;;12.94;52.76;102356.00;7355482;19;20021;-62
2022/03/24 01:04:11;;;;;;;0.00;0.00;;;;;;;12.97;52.40;102366.47;7357867;19;20479;-62
2022/03/24 01:06:36;;;;;;;0.00;0.00;;;;;;;12.98;52.36;102368.22;7356071;19;20910;-62
2022/03/24 01:09:04;;;;;;;0.00;0.00;;;;;;;13.00;52.81;102366.47;7358403;19;20018;-62
2022/03/24 01:11:32;;;;;;;0.00;0.00;;;;;;;13.03;53.01;102366.44;7352044;19;20010;-62
2022/03/24 01:14:00;;;;;;;0.00;0.00;;;;;;;13.05;52.78;102364.69;7345863;19;20002;-62
2022/03/24 01:16:25;;;;;;;0.00;0.00;;;;;;;13.09;52.82;102366.41;7353759;19;20029;-61
2022/03/24 01:18:51;;;;;;;0.00;0.00;;;;;;;13.14;52.73;102363.75;7336928;19;20006;-61
2022/03/24 01:21:17;;;;;;;0.00;0.00;;;;;;;13.16;52.45;102373.34;7366502;19;20463;-62
2022/03/24 01:23:46;;;;;;;0.00;0.00;;;;;;;13.20;52.42;102364.56;7356042;19;20073;-62
2022/03/24 01:26:12;;;;;;;0.00;0.00;;;;;;;13.22;52.50;102362.84;7340667;19;20103;-63
2022/03/24 01:28:39;;;;;;;0.00;0.00;;;;;;;13.24;52.72;102354.97;7350697;19;20010;-62
2022/03/24 01:31:08;;;;;;;0.00;0.00;;;;;;;13.24;53.17;102350.59;7358363;19;20489;-61
2022/03/24 01:33:40;;;;;;;0.00;0.00;;;;;;;13.29;53.26;102350.56;7352618;19;20010;-62
2022/03/24 01:36:10;;;;;;;0.10;0.10;;;;;;;13.34;52.69;102361.91;1985017;19;10022873;-61
2022/03/24 01:38:37;;;;;;;0.00;0.00;;;;;;;13.23;53.38;102342.75;6644540;19;10001397;-63
2022/03/24 01:41:03;;;;;;;0.00;0.00;;;;;;;13.36;52.92;102357.50;7358776;19;20014;-62
2022/03/24 01:43:29;;;;;;;0.00;0.00;;;;;;;13.38;53.19;102350.50;7342651;19;20099;-62
2022/03/24 01:45:55;;;;;;;0.00;0.00;;;;;;;13.41;53.61;102346.97;7355563;19;20029;-62
2022/03/24 01:48:21;;;;;;;0.10;0.10;;;;;;;13.43;53.33;102345.19;7351517;19;20015;-62
2022/03/24 01:50:46;;;;;;;0.00;0.00;;;;;;;13.43;53.43;102340.84;7352075;19;20019;-62
2022/03/24 01:53:12;;;;;;;0.00;0.00;;;;;;;13.45;52.59;102349.56;7352118;19;20014;-62
2022/03/24 01:55:39;;;;;;;0.10;0.10;;;;;;;13.44;53.36;102346.94;7353273;19;20035;-62
2022/03/24 01:58:05;;;;;;;0.00;0.00;;;;;;;13.44;52.92;102346.94;7355418;19;20027;-62
2022/03/24 02:00:31;;;;;;;0.00;0.00;;;;;;;13.42;53.08;102338.19;7333714;19;20039;-62
2022/03/24 02:03:02;;;;;;;0.03;0.03;;;;;;;13.31;52.77;102319.06;7347954;19;20463;-62
2022/03/24 02:05:30;;;;;;;0.00;0.00;;;;;;;13.35;52.42;102337.38;7367163;19;20104;-61
2022/03/24 02:07:56;;;;;;;0.00;0.00;;;;;;;13.32;52.12;102333.91;7356528;19;20018;-62
2022/03/24 02:10:21;;;;;;;0.00;0.00;;;;;;;13.28;52.40;102343.59;7350931;19;20009;-62
2022/03/24 02:12:47;;;;;;;0.00;0.00;;;;;;;13.18;52.14;102334.88;7359765;19;20014;-63
2022/03/24 02:15:12;;;;;;;0.00;0.00;;;;;;;13.18;52.49;102334.88;7356442;19;20026;-63
2022/03/24 02:17:39;;;;;;;0.00;0.00;;;;;;;13.02;52.27;102316.63;7355748;19;20014;-62
2022/03/24 02:20:08;;;;;;;0.00;0.00;;;;;;;12.99;52.67;102317.53;7350463;19;20010;-61
2022/03/24 02:22:34;;;;;;;0.00;0.00;;;;;;;13.04;52.55;102343.72;7345925;19;20028;-62
2022/03/24 02:24:59;;;;;;;0.00;0.00;;;;;;;12.99;52.46;102338.50;7354841;19;20089;-62
2022/03/24 02:27:25;;;;;;;0.00;0.00;;;;;;;12.93;52.46;102333.31;7357970;19;20002;-62
2022/03/24 02:29:51;;;;;;;0.00;0.00;;;;;;;12.88;52.20;102332.47;7357300;19;20021;-62
2022/03/24 02:32:19;;;;;;;0.00;0.00;;;;;;;12.83;52.23;102336.88;7353919;19;20017;-62
2022/03/24 02:34:48;;;;;;;0.00;0.00;;;;;;;12.76;52.59;102335.13;7354361;19;20017;-62
2022/03/24 02:37:20;;;;;;;0.00;0.00;;;;;;;12.67;52.71;102331.69;7355573;19;20690;-62
2022/03/24 02:39:51;;;;;;;0.00;0.00;;;;;;;12.63;52.80;102335.22;7316178;19;20022;-62
2022/03/24 02:42:20;;;;;;;0.00;0.00;;;;;;;12.58;53.04;102337.00;7351970;19;20712;-62
2022/03/24 02:44:51;;;;;;;0.00;0.00;;;;;;;12.27;52.55;102289.09;7353950;19;20011;-62
2022/03/24 02:47:17;;;;;;;0.00;0.00;;;;;;;12.47;53.03;102333.56;7330612;19;20109;-62
2022/03/24 02:49:46;;;;;;;0.00;0.00;;;;;;;12.41;53.14;102336.16;7351295;19;20715;-63
2022/03/24 02:52:12;;;;;;;0.00;0.00;;;;;;;12.35;52.86;102330.97;7355572;19;20019;-61
2022/03/24 02:54:38;;;;;;;0.00;0.00;;;;;;;12.29;53.32;102333.63;7332409;19;20015;-62
2022/03/24 02:57:05;;;;;;;0.00;0.00;;;;;;;12.23;53.58;102333.63;7360806;19;20071;-62
2022/03/24 02:59:31;;;;;;;0.00;0.00;;;;;;;12.19;53.54;102336.25;7357725;19;20014;-62
2022/03/24 03:01:59;;;;;;;0.00;0.00;;;;;;;12.14;54.05;102339.78;7353562;19;20022;-62
2022/03/24 03:04:26;;;;;;;0.00;0.00;;;;;;;12.05;54.12;102329.31;7348856;19;20011;-62
2022/03/24 03:06:54;;;;;;;0.00;0.00;;;;;;;12.02;53.54;102334.59;7352893;19;20365;-62
2022/03/24 03:09:19;;;;;;;;;;;;;;;11.99;51.67;102332.81;7356952;19;20018;-61
2022/03/24 03:11:45;;;;;;;0.00;0.00;;;;;;;11.93;53.70;102343.31;7333241;19;19934;-62
2022/03/24 03:14:13;;;;;;;0.00;0.00;;;;;;;11.78;53.68;102325.84;7351206;19;20015;-61
2022/03/24 03:16:39;;;;;;;0.00;0.00;;;;;;;11.81;53.56;102332.81;7348562;19;20015;-62
2022/03/24 03:19:08;;;;;;;0.00;0.00;;;;;;;11.76;54.15;102334.56;7350975;19;20034;-62
2022/03/24 03:21:33;;;;;;;0.00;0.00;;;;;;;11.71;53.81;102329.38;7351365;19;20090;-61
2022/03/24 03:23:59;;;;;;;0.00;0.00;;;;;;;11.66;54.13;102334.59;7332761;19;20156;-63
2022/03/24 03:26:24;;;;;;;0.00;0.00;;;;;;;11.60;54.07;102331.97;7319881;19;20010;-61
2022/03/24 03:28:53;;;;;;;0.00;0.00;;;;;;;11.58;54.40;102325.88;7351122;19;20022;-62
2022/03/24 03:31:22;;;;;;;0.00;0.00;;;;;;;11.41;53.65;102301.50;7346993;19;20018;-61
2022/03/24 03:33:48;;;;;;;0.00;0.00;;;;;;;11.50;53.51;102325.00;7350718;19;20042;-62
2022/03/24 03:36:13;;;;;;;0.00;0.00;;;;;;;11.46;53.80;102319.81;7359308;19;20110;-62
2022/03/24 03:38:39;;;;;;;0.00;0.00;;;;;;;11.33;54.06;102306.72;7334453;19;20018;-62
2022/03/24 03:41:22;;;;;;;0.00;0.00;;;;;;;11.40;53.25;102318.03;6372832;19;10001210;-62
2022/03/24 03:43:48;;;;;;;0.10;0.10;;;;;;;11.18;54.57;102299.72;2613988;19;10001923;-62
2022/03/24 03:46:15;;;;;;;0.00;0.00;;;;;;;11.22;54.29;102316.31;7349606;19;20014;-62
2022/03/24 03:48:41;;;;;;;0.00;0.00;;;;;;;11.12;55.27;102306.72;7344689;19;20014;-62
2022/03/24 03:51:08;;;;;;;0.00;0.00;;;;;;;11.08;55.27;102311.06;7343909;19;20014;-61
2022/03/24 03:53:34;;;;;;;0.00;0.00;;;;;;;11.00;55.93;102301.44;7340437;19;20030;-63
2022/03/24 03:56:00;;;;;;;0.00;0.00;;;;;;;10.94;55.60;102307.53;7343032;19;20010;-62
2022/03/24 03:58:26;;;;;;;0.00;0.00;;;;;;;10.85;55.71;102302.31;7348824;19;20088;-62
2022/03/24 04:00:57;;;;;;;0.00;0.00;;;;;;;10.84;55.77;102313.63;7316674;19;20082;-62
2022/03/24 04:03:23;;;;;;;0.00;0.00;;;;;;;10.84;55.54;102316.25;7305501;19;20539;-62
2022/03/24 04:05:53;;;;;;;0.00;0.00;;;;;;;10.80;54.88;102309.28;7315871;19;20022;-62
2022/03/24 04:08:19;;;;;;;0.00;0.00;;;;;;;10.78;55.49;102311.00;7314175;19;20106;-61
2022/03/24 04:10:45;;;;;;;0.08;0.08;;;;;;;10.78;55.17;102311.00;7341702;19;20051;-62
2022/03/24 04:13:11;;;;;;;0.00;0.00;;;;;;;10.77;54.79;102309.28;7357557;19;20014;-61
2022/03/24 04:15:37;;;;;;;0.00;0.00;;;;;;;10.75;55.08;102316.25;7332303;19;20025;-62
2022/03/24 04:18:02;;;;;;;0.00;0.00;;;;;;;10.62;55.95;102295.28;7334213;19;20010;-63
2022/03/24 04:20:29;;;;;;;0.00;0.00;;;;;;;10.71;55.18;102322.31;7319965;19;20024;-61
2022/03/24 04:22:59;;;;;;;0.00;0.00;;;;;;;10.68;55.12;102312.72;7356452;19;20766;-61
2022/03/24 04:25:26;;;;;;;0.00;0.00;;;;;;;10.64;55.33;102324.94;7344017;19;20006;-62
2022/03/24 04:27:52;;;;;;;0.00;0.00;;;;;;;10.61;55.36;102309.22;7359626;19;20018;-62
2022/03/24 04:30:17;;;;;;;0.00;0.00;;;;;;;10.58;55.35;102314.44;7364574;19;20019;-63
2022/03/24 04:32:47;;;;;;;0.00;0.00;;;;;;;10.56;55.83;102310.94;7367137;19;20025;-61
2022/03/24 04:35:16;;;;;;;0.00;0.00;;;;;;;10.52;55.67;102317.03;7359797;19;20042;-62
2022/03/24 04:37:42;;;;;;;0.00;0.00;;;;;;;10.49;55.62;102322.25;7339131;19;20018;-62
2022/03/24 04:40:12;;;;;;;0.00;0.00;;;;;;;10.48;55.70;102322.22;7314336;19;20106;-61
2022/03/24 04:42:39;;;;;;;0.10;0.10;;;;;;;10.42;55.72;102317.88;7358017;19;20006;-62
2022/03/24 04:45:06;;;;;;;0.00;0.00;;;;;;;10.43;56.28;102322.22;7360595;19;20754;-63
2022/03/24 04:47:32;;;;;;;0.00;0.00;;;;;;;10.41;55.74;102318.75;7358288;19;20012;-62
2022/03/24 04:49:57;;;;;;;0.00;0.00;;;;;;;10.37;55.57;102320.44;7356553;19;20007;-62
2022/03/24 04:52:23;;;;;;;0.00;0.00;;;;;;;10.35;55.81;102321.34;7357729;19;20006;-62
2022/03/24 04:54:50;;;;;;;0.00;0.00;;;;;;;10.34;55.94;102320.47;7329019;19;20091;-61
2022/03/24 04:57:15;;;;;;;0.00;0.00;;;;;;;10.31;56.00;102315.22;7355034;19;20083;-63
2022/03/24 04:59:42;;;;;;;0.00;0.00;;;;;;;10.29;55.99;102316.06;7356965;19;20104;-62
2022/03/24 05:02:08;;;;;;;0.03;0.03;;;;;;;10.15;55.87;102297.72;7332150;19;20802;-60
2022/03/24 05:04:34;;;;;;;0.10;0.10;;;;;;;10.25;55.86;102316.94;7363865;19;20010;-62
2022/03/24 05:07:00;;;;;;;0.00;0.00;;;;;;;10.22;55.99;102314.25;7351742;19;20031;-62
2022/03/24 05:09:25;;;;;;;0.00;0.00;;;;;;;10.20;55.99;102318.63;7336139;19;20777;-62
2022/03/24 05:11:51;;;;;;;0.08;0.08;;;;;;;10.18;56.39;102317.72;7342933;19;20014;-62
2022/03/24 05:14:16;;;;;;;0.00;0.00;;;;;;;10.13;55.95;102323.78;7354867;19;20094;-62
2022/03/24 05:16:42;;;;;;;0.00;0.00;;;;;;;10.12;56.39;102323.78;7349254;19;20015;-60
2022/03/24 05:19:08;;;;;;;0.00;0.00;;;;;;;10.08;56.37;102322.88;7351764;19;20013;-61
2022/03/24 05:21:34;;;;;;;0.00;0.00;;;;;;;10.06;55.74;102329.84;7349784;19;20014;-60
2022/03/24 05:24:00;;;;;;;0.00;0.00;;;;;;;10.03;56.19;102327.22;7343796;19;20006;-62
2022/03/24 05:26:26;;;;;;;0.00;0.00;;;;;;;10.02;56.02;102327.22;7348040;19;20018;-62
2022/03/24 05:28:52;;;;;;;0.00;0.00;;;;;;;9.97;56.05;102323.69;7331746;19;20046;-62
2022/03/24 05:31:18;;;;;;;0.00;0.00;;;;;;;9.96;56.58;102329.78;7329124;19;20772;-62
2022/03/24 05:33:45;;;;;;;0.10;0.10;;;;;;;9.92;56.16;102326.28;7347552;19;20666;-62
2022/03/24 05:36:11;;;;;;;0.00;0.00;;;;;;;9.90;56.34;102328.03;7335869;19;20015;-62
2022/03/24 05:38:37;;;;;;;0.00;0.00;;;;;;;9.87;56.47;102325.38;7354363;19;20007;-62
2022/03/24 05:41:04;;;;;;;0.10;0.10;;;;;;;9.84;56.84;102320.16;7328241;19;20017;-62
2022/03/24 05:43:29;;;;;;;0.00;0.00;;;;;;;9.83;56.79;102326.22;7327942;19;20023;-62
2022/03/24 05:46:03;;;;;;;0.00;0.00;;;;;;;9.75;57.10;102312.28;4781737;19;10021330;-63
2022/03/24 05:48:29;;;;;;;0.00;0.00;;;;;;;9.78;57.71;102327.91;4005590;19;10001849;-62
2022/03/24 05:50:54;;;;;;;0.00;0.00;;;;;;;9.76;57.56;102321.84;7336031;19;20078;-62
2022/03/24 05:53:20;;;;;;;0.00;0.00;;;;;;;9.75;57.46;102331.41;7360313;19;20006;-62
2022/03/24 05:55:45;;;;;;;0.00;0.00;;;;;;;9.69;57.20;102322.66;7337741;19;20027;-62
2022/03/24 05:58:12;;;;;;;0.00;0.00;;;;;;;9.72;56.81;102333.97;7346131;19;20074;-62
2022/03/24 06:00:40;;;;;;;0.00;0.00;;;;;;;9.71;57.56;102328.75;7330373;19;20018;-62
2022/03/24 06:03:07;;;;;;;0.00;0.00;;;;;;;9.69;57.65;102333.09;7346996;19;20018;-61
2022/03/24 06:05:33;;;;;;;0.00;0.00;;;;;;;9.60;57.86;102319.13;7326250;19;20035;-61
2022/03/24 06:08:00;;;;;;;0.00;0.00;;;;;;;9.56;57.99;102311.25;7352723;19;20014;-62
2022/03/24 06:10:27;;;;;;;0.00;0.00;;;;;;;9.64;57.08;102338.28;7343740;19;20379;-60
2022/03/24 06:12:52;;;;;;;0.00;0.00;;;;;;;9.61;57.11;102331.28;7352415;19;20030;-62
2022/03/24 06:15:19;;;;;;;0.00;0.00;;;;;;;9.59;57.53;102333.03;7331543;19;20006;-62
2022/03/24 06:17:44;;;;;;;0.00;0.00;;;;;;;9.58;57.68;102331.28;7347120;19;20017;-60
2022/03/24 06:20:11;;;;;;;0.00;0.00;;;;;;;9.56;57.53;102340.81;7352873;19;20030;-61
2022/03/24 06:22:48;;;;;;;0.03;0.03;;;;;;;9.56;57.30;102337.34;7354137;19;20006;-62
2022/03/24 06:25:14;;;;;;;0.00;0.00;;;;;;;9.53;57.68;102343.41;7352688;19;21029;-60
2022/03/24 06:27:40;;;;;;;0.00;0.00;;;;;;;9.48;57.63;102333.78;7326093;19;20011;-62
2022/03/24 06:30:06;;;;;;;0.00;0.00;;;;;;;9.49;57.48;102336.44;7358339;19;19987;-62
2022/03/24 06:32:32;;;;;;;0.00;0.00;;;;;;;9.38;57.54;102322.44;7354552;19;20006;-61
2022/03/24 06:34:58;;;;;;;0.00;0.00;;;;;;;9.45;58.02;102341.59;7330814;19;20018;-62
2022/03/24 06:37:24;;;;;;;0.00;0.00;;;;;;;9.43;57.86;102346.81;7351895;19;20019;-62
2022/03/24 06:39:49;;;;;;;0.00;0.00;;;;;;;9.43;57.96;102343.31;7351559;19;20625;-62
2022/03/24 06:42:16;;;;;;;0.00;0.00;;;;;;;9.41;58.02;102345.91;7356093;19;20058;-61
2022/03/24 06:44:41;;;;;;;0.00;0.00;;;;;;;9.41;57.75;102348.53;7351215;19;20014;-61
2022/03/24 06:47:06;;;;;;;0.08;0.08;;;;;;;9.27;58.56;102324.06;7344355;19;20018;-62
2022/03/24 06:49:32;;;;;;;0.00;0.00;;;;;;;9.39;58.26;102344.16;7349052;19;20011;-61
2022/03/24 06:51:58;;;;;;;0.00;0.00;;;;;;;9.40;58.32;102346.78;7354172;19;20598;-62
2022/03/24 06:54:23;;;;;;;0.00;0.00;;;;;;;9.40;58.31;102352.00;7310748;19;20020;-62
2022/03/24 06:56:49;;;;;;;0.00;0.00;;;;;;;9.41;58.51;102353.72;7345780;19;20014;-61
2022/03/24 06:59:15;;;;;;;0.00;0.00;;;;;;;9.41;58.64;102352.84;7353996;19;20010;-61
2022/03/24 07:01:42;;;;;;;0.00;0.00;;;;;;;9.42;58.88;102352.88;7351367;19;20037;-62
2022/03/24 07:04:08;;;;;;;0.00;0.00;;;;;;;9.43;58.93;102357.25;7353075;19;20834;-62
2022/03/24 07:06:33;;;;;;;0.00;0.00;;;;;;;9.43;59.38;102349.41;7329262;19;20083;-62
2022/03/24 07:08:59;;;;;;;0.00;0.00;;;;;;;9.46;58.72;102361.59;7351360;19;20022;-63
2022/03/24 07:11:24;;;;;;;0.00;0.00;;;;;;;9.48;58.78;102354.66;7323929;19;20659;-61
2022/03/24 07:13:50;;;;;;;0.00;0.00;;;;;;;9.50;58.78;102360.78;7348695;19;20021;-62
2022/03/24 07:16:15;;;;;;;0.10;0.10;;;;;;;9.52;59.27;102352.06;7356334;19;20029;-61
2022/03/24 07:18:41;;;;;;;0.00;0.00;;;;;;;9.54;58.87;102350.38;7333066;19;20059;-63
2022/03/24 07:21:06;;;;;;;0.00;0.00;;;;;;;9.57;58.96;102349.50;7354169;19;20678;-62
2022/03/24 07:23:32;;;;;;;0.00;0.00;;;;;;;9.59;59.48;102353.03;7354776;19;20014;-62
2022/03/24 07:25:58;;;;;;;0.00;0.00;;;;;;;9.61;59.47;102357.38;7360826;19;20006;-62
2022/03/24 07:28:23;;;;;;;0.00;0.00;;;;;;;9.65;59.57;102360.03;7351965;19;20018;-62
2022/03/24 07:30:50;;;;;;;0.03;0.03;;;;;;;9.68;59.00;102360.03;7345002;19;20007;-62
2022/03/24 07:33:18;;;;;;;0.00;0.00;;;;;;;9.73;58.45;102360.94;7328467;19;20021;-62
2022/03/24 07:35:43;;;;;;;;;;;;;;;9.81;56.99;102369.69;7342626;19;20011;-61
2022/03/24 07:38:09;;;;;;;0.03;0.03;;;;;;;9.83;58.72;102368.88;7347439;19;19942;-62
2022/03/24 07:40:35;;;;;;;0.00;0.00;;;;;;;9.87;59.21;102369.72;7349818;19;20360;-62
2022/03/24 07:43:00;;;;;;;0.00;0.00;;;;;;;9.90;59.48;102375.00;7327440;19;20125;-61
2022/03/24 07:45:29;;;;;;;0.00;0.00;;;;;;;9.94;59.64;102376.75;7309904;19;20010;-62
2022/03/24 07:48:03;;;;;;;0.00;0.00;;;;;;;9.99;58.52;102380.28;7344791;19;20006;-63
2022/03/24 07:50:29;;;;;;;0.00;0.00;;;;;;;9.91;59.21;102368.91;7348896;19;20018;-62
2022/03/24 07:52:55;;;;;;;0.00;0.00;;;;;;;10.05;59.42;102385.53;7316309;19;20106;-62
2022/03/24 07:55:21;;;;;;;0.10;0.10;;;;;;;10.10;59.18;102396.88;7347964;19;20018;-60
2022/03/24 07:57:46;;;;;;;0.00;0.00;;;;;;;10.17;59.53;102389.94;7352854;19;20038;-62
2022/03/24 08:00:12;;;;;;;0.00;0.00;;;;;;;10.20;60.44;102384.75;7350871;19;20018;-62
2022/03/24 08:02:43;;;;;;;0.00;0.00;;;;;;;10.33;59.48;102390.94;7342586;19;20042;-61
2022/03/24 08:05:08;;;;;;;0.00;0.00;;;;;;;10.38;60.24;102389.22;7347755;19;20007;-61
2022/03/24 08:07:34;;;;;;;0.00;0.00;;;;;;;10.47;60.31;102394.50;7352314;19;20547;-61
2022/03/24 08:09:59;;;;;;;0.00;0.00;;;;;;;10.56;60.40;102399.78;7339434;19;20487;-62
2022/03/24 08:12:25;;;;;;;0.00;0.00;;;;;;;10.67;60.53;102391.09;7348591;19;20014;-62
2022/03/24 08:14:50;;;;;;;0.00;0.00;;;;;;;10.80;60.55;102393.78;7355691;19;20018;-62
2022/03/24 08:17:16;;;;;;;0.00;0.00;;;;;;;10.93;60.34;102397.28;7358917;19;20019;-62
2022/03/24 08:20:00;;;;;;;0.00;0.00;;;;;;;11.09;60.24;102396.44;4360321;19;10215164;-61
2022/03/24 08:22:26;;;;;;;0.00;0.00;;;;;;;11.21;60.89;102395.63;5019882;19;10001312;-62
2022/03/24 08:24:51;;;;;;;0.10;0.10;;;;;;;11.36;61.29;102400.00;7360452;19;20805;-63
2022/03/24 08:27:17;;;;;;;0.00;0.00;;;;;;;11.53;60.60;102398.25;7347102;19;20010;-62
2022/03/24 08:29:42;;;;;;;0.00;0.00;;;;;;;11.73;60.40;102397.41;7348441;19;20010;-62
2022/03/24 08:32:08;;;;;;;0.00;0.00;;;;;;;11.88;60.15;102389.56;7348956;19;20010;-62
2022/03/24 08:34:33;;;;;;;0.00;0.00;;;;;;;12.16;60.07;102401.72;7351634;19;21641;-61
2022/03/24 08:36:59;;;;;;;0.00;0.00;;;;;;;12.38;59.78;102405.19;7347130;19;20007;-62
2022/03/24 08:39:24;;;;;;;0.05;0.05;;;;;;;12.61;59.34;102405.09;7349449;19;20094;-62
2022/03/24 08:41:51;;;;;;;0.08;0.08;;;;;;;12.86;59.12;102405.00;7350055;19;20498;-62
2022/03/24 08:44:16;;;;;;;0.00;0.00;;;;;;;13.11;58.58;102410.97;7346706;19;20103;-62
2022/03/24 08:46:42;;;;;;;0.00;0.00;;;;;;;13.33;58.66;102403.88;7351315;19;20570;-62
2022/03/24 08:49:07;;;;;;;0.00;0.00;;;;;;;13.60;58.25;102411.56;7350103;19;20018;-61
2022/03/24 08:51:34;;;;;;;0.10;0.10;;;;;;;13.86;58.29;102408.69;7357126;19;20033;-62
2022/03/24 08:53:59;;;;;;;0.00;0.00;;;;;;;14.12;57.71;102411.06;7346979;19;20015;-62
2022/03/24 08:56:25;;;;;;;0.00;0.00;;;;;;;14.38;56.93;102412.56;7344508;19;20026;-62
2022/03/24 08:58:51;;;;;;;0.00;0.00;;;;;;;14.64;56.55;102410.53;7346610;19;20049;-59
2022/03/24 09:04:39;;;;;;;0.00;0.00;;;;;;;15.26;55.85;102418.47;7149117;19;2004999;-54
2022/03/24 09:07:04;;;;;;;0.00;0.00;;;;;;;15.49;54.87;102418.97;7356302;19;20049;-57
2022/03/24 09:09:29;;;;;;;0.00;0.00;;;;;;;15.74;54.84;102414.22;7362570;19;20018;-57
2022/03/24 09:11:55;;;;;;;0.00;0.00;;;;;;;16.02;54.49;102422.53;7364333;19;20006;-59
2022/03/24 09:14:21;;;;;;;0.00;0.00;;;;;;;16.29;53.89;102418.50;7360156;19;20011;-57
2022/03/24 09:16:46;;;;;;;0.08;0.08;;;;;;;16.63;53.13;102433.69;7358811;19;20070;-57
2022/03/24 09:19:12;;;;;;;0.10;0.10;;;;;;;16.94;52.61;102430.44;7360343;19;20021;-57
2022/03/24 09:21:38;;;;;;;0.00;0.00;;;;;;;17.22;52.34;102426.25;7361598;19;20015;-57
2022/03/24 09:24:03;;;;;;;0.10;0.10;;;;;;;17.50;51.81;102422.97;7362178;19;20130;-57
2022/03/24 09:26:29;;;;;;;0.00;0.00;;;;;;;17.73;51.59;102425.94;7360664;19;20019;-58
2022/03/24 09:28:54;;;;;;;0.10;0.10;;;;;;;17.96;50.15;102422.72;7364165;19;20028;-57
2022/03/24 09:31:20;;;;;;;0.10;0.10;;;;;;;18.13;49.63;102436.34;7359376;19;20006;-58
2022/03/24 09:33:46;;;;;;;0.00;0.00;;;;;;;18.15;49.01;102423.13;7361315;19;20035;-57
2022/03/24 09:36:12;;;;;;;0.00;0.00;;;;;;;18.19;48.54;102427.38;7364438;19;20639;-57
2022/03/24 09:38:38;;;;;;;0.10;0.10;;;;;;;18.16;48.44;102430.13;7352504;19;20018;-58
2022/03/24 09:41:06;;;;;;;0.00;0.00;;;;;;;18.10;48.19;102436.44;7365803;19;20018;-57
2022/03/24 09:43:34;;;;;;;0.00;0.00;;;;;;;17.98;48.56;102431.47;7371560;19;20022;-58
2022/03/24 09:46:01;;;;;;;0.00;0.00;;;;;;;17.81;48.86;102418.69;7368763;19;20126;-56
2022/03/24 09:48:27;;;;;;;;;;;;;;;17.90;49.68;102428.19;7365715;19;20033;-55
2022/03/24 09:50:53;;;;;;;0.00;0.00;;;;;;;17.73;49.42;102427.72;7362202;19;19927;-57
2022/03/24 09:53:19;;;;;;;0.00;0.00;;;;;;;17.68;49.39;102430.44;7358609;19;20015;-57
2022/03/24 09:55:47;;;;;;;0.00;0.00;;;;;;;17.64;49.71;102431.44;7369319;19;20019;-58
2022/03/24 09:58:12;;;;;;;0.00;0.00;;;;;;;17.58;49.75;102426.28;7371739;19;20034;-57
2022/03/24 10:00:38;;;;;;;0.00;0.00;;;;;;;17.51;49.46;102419.44;7361496;19;20027;-57
2022/03/24 10:03:18;;;;;;;0.00;0.00;;;;;;;17.62;49.52;102422.66;7360615;19;20017;-57
2022/03/24 10:05:59;;;;;;;0.10;0.10;;;;;;;17.74;49.54;102432.09;7364604;19;20014;-57
2022/03/24 10:08:27;;;;;;;0.10;0.10;;;;;;;17.73;49.58;102425.94;7354838;19;20010;-57
2022/03/24 10:11:01;;;;;;;0.10;0.10;;;;;;;17.83;49.56;102432.72;7356502;19;20042;-56
2022/03/24 10:13:54;;;;;;;0.00;0.00;;;;;;;17.95;49.62;102434.22;3501947;19;10002955;-57
2022/03/24 10:16:40;;;;;;;0.00;0.00;;;;;;;18.03;49.42;102434.00;5528870;19;10001536;-58
2022/03/24 10:19:07;;;;;;;0.00;0.00;;;;;;;18.06;49.03;102433.94;7353112;19;20018;-58
2022/03/24 10:21:38;;;;;;;0.00;0.00;;;;;;;18.20;48.85;102437.06;7354414;19;20034;-58
2022/03/24 10:24:23;;;;;;;0.00;0.00;;;;;;;18.34;48.70;102434.91;7357338;19;20498;-58
2022/03/24 10:27:02;;;;;;;0.00;0.00;;;;;;;18.44;47.94;102429.38;7359339;19;20123;-56
2022/03/24 10:29:30;;;;;;;0.08;0.08;;;;;;;18.50;47.49;102429.19;7354096;19;20023;-57
2022/03/24 10:31:57;;;;;;;0.10;0.10;;;;;;;18.61;47.56;102427.13;7362021;19;20006;-58
2022/03/24 10:34:32;;;;;;;;;;;;;;;18.82;48.69;102431.81;7354352;19;20037;-57
2022/03/24 10:37:05;;;;;;;0.00;0.00;;;;;;;18.79;47.36;102416.00;7356482;19;19923;-58
2022/03/24 10:49:36;;;;;;;0.00;0.00;;;;;;;19.43;46.45;102424.63;7144865;19;2004589;-58
2022/03/24 10:52:02;;;;;;;0.00;0.00;;;;;;;19.52;46.33;102427.91;7364588;19;20045;-58
2022/03/24 10:54:46;;;;;;;0.00;0.00;;;;;;;19.70;46.50;102433.47;7366422;19;20042;-57
2022/03/24 10:57:21;;;;;;;0.00;0.00;;;;;;;19.77;45.86;102434.16;7364632;19;20010;-58
2022/03/24 10:59:54;;;;;;;0.10;0.10;;;;;;;19.80;46.07;102434.03;7357161;19;20006;-55
2022/03/24 11:02:21;;;;;;;0.00;0.00;;;;;;;19.86;45.10;102433.81;7356247;19;20016;-58
2022/03/24 11:07:29;;;;;;;0.00;0.00;;;;;;;20.08;44.76;102438.41;7321547;19;20026;-57
2022/03/24 11:09:54;;;;;;;0.10;0.10;;;;;;;20.06;44.39;102440.22;7360183;19;20015;-59
2022/03/24 11:12:23;;;;;;;0.00;0.00;;;;;;;20.14;44.90;102435.53;7359626;19;20399;-57
2022/03/24 11:14:54;;;;;;;0.10;0.10;;;;;;;19.98;44.07;102421.09;7359473;19;20018;-58
2022/03/24 11:17:23;;;;;;;0.00;0.00;;;;;;;20.10;44.25;102433.91;7359728;19;20031;-58
2022/03/24 11:20:04;;;;;;;0.00;0.00;;;;;;;20.16;44.70;102436.34;7358012;19;20046;-58
2022/03/24 11:23:06;;;;;;;0.10;0.10;;;;;;;20.09;45.39;102418.91;7359897;19;20014;-58
2022/03/24 11:25:32;;;;;;;0.00;0.00;;;;;;;20.10;44.60;102436.56;7258676;19;2004387;-58
2022/03/24 11:27:57;;;;;;;0.00;0.00;;;;;;;20.10;44.53;102424.16;7355023;19;20014;-55
2022/03/24 11:30:24;;;;;;;0.00;0.00;;;;;;;20.14;44.19;102422.28;7356691;19;20006;-57
2022/03/24 11:32:54;;;;;;;0.03;0.03;;;;;;;20.18;43.94;102421.25;7359415;19;20018;-58
2022/03/24 11:35:21;;;;;;;0.00;0.00;;;;;;;20.16;43.57;102428.38;7359504;19;20571;-58
2022/03/24 11:37:48;;;;;;;0.03;0.03;;;;;;;20.19;43.35;102420.31;7351925;19;20023;-58
2022/03/24 11:40:19;;;;;;;0.03;0.03;;;;;;;20.16;43.64;102415.13;7354939;19;20018;-58
2022/03/24 11:43:23;;;;;;;0.00;0.00;;;;;;;20.18;43.93;102419.47;7361599;19;20033;-58